Time;durP1;ratioP1;P1;durP2;ratioP2;P2;SDS_P1;SDS_P2;PMS_P1;PMS_P2;Temp;Humidity;BMP_temperature;BMP_pressure;BME280_temperature;BME280_humidity;BME280_pressure;Samples;Min_cycle;Max_cycle;Signal;HPM_P1;HPM_P2
2022/08/10 00:01:33;;;;;;;5.93;3.33;;;;;;;;;;5111656;28;20200;-79
2022/08/10 00:04:00;;;;;;;3.47;3.17;;;;;;;;;;5110071;28;20265;-78
2022/08/10 00:06:27;;;;;;;9.10;3.50;;;;;;;;;;5111066;28;20203;-78
2022/08/10 00:08:54;;;;;;;9.23;3.17;;;;;;;;;;5114079;28;20199;-78
2022/08/10 00:11:21;;;;;;;3.40;3.10;;;;;;;;;;5114142;28;20199;-78
2022/08/10 00:13:47;;;;;;;3.50;3.03;;;;;;;;;;5114302;28;20649;-78
2022/08/10 00:16:14;;;;;;;3.93;3.13;;;;;;;;;;5114007;28;20567;-79
2022/08/10 00:18:43;;;;;;;4.60;3.90;;;;;;;;;;5114427;28;20199;-78
2022/08/10 00:21:10;;;;;;;3.33;3.03;;;;;;;;;;5114428;28;20206;-77
2022/08/10 00:23:38;;;;;;;4.30;3.37;;;;;;;;;;5113652;28;20272;-78
2022/08/10 00:26:06;;;;;;;3.97;3.63;;;;;;;;;;5114435;28;20191;-77
2022/08/10 00:28:33;;;;;;;4.37;3.60;;;;;;;;;;5114728;28;20199;-77
2022/08/10 00:31:00;;;;;;;4.67;3.17;;;;;;;;;;5112630;28;20661;-78
2022/08/10 00:33:27;;;;;;;3.50;3.07;;;;;;;;;;5114995;28;20569;-78
2022/08/10 00:35:55;;;;;;;4.80;3.57;;;;;;;;;;5113114;28;20191;-78
2022/08/10 00:38:22;;;;;;;5.70;3.13;;;;;;;;;;5114615;28;20573;-78
2022/08/10 00:40:48;;;;;;;3.70;3.03;;;;;;;;;;5114240;28;20195;-77
2022/08/10 00:43:15;;;;;;;4.67;3.47;;;;;;;;;;5113165;28;20534;-79
2022/08/10 00:45:42;;;;;;;3.27;2.97;;;;;;;;;;5114433;28;20192;-77
2022/08/10 00:48:09;;;;;;;9.20;3.23;;;;;;;;;;5114766;28;20203;-78
2022/08/10 00:50:36;;;;;;;5.03;2.87;;;;;;;;;;5112201;28;20188;-78
2022/08/10 00:53:05;;;;;;;5.50;3.73;;;;;;;;;;5113272;28;20213;-78
2022/08/10 00:55:32;;;;;;;4.87;3.33;;;;;;;;;;5112967;28;20202;-78
2022/08/10 00:57:59;;;;;;;5.50;3.00;;;;;;;;;;5112846;28;20199;-78
2022/08/10 01:00:26;;;;;;;4.30;3.63;;;;;;;;;;5113468;28;20227;-78
2022/08/10 01:02:53;;;;;;;4.03;3.27;;;;;;;;;;5113490;28;21267;-78
2022/08/10 01:05:20;;;;;;;6.63;3.57;;;;;;;;;;5113450;28;20237;-78
2022/08/10 01:08:07;;;;;;;6.23;3.70;;;;;;;;;;5112937;28;20210;-79
2022/08/10 01:10:40;;;;;;;13.53;4.73;;;;;;;;;;5113190;28;20669;-78
2022/08/10 01:13:12;;;;;;;3.83;3.53;;;;;;;;;;5113223;28;20204;-78
2022/08/10 01:15:46;;;;;;;4.17;3.77;;;;;;;;;;5113147;28;20674;-78
2022/08/10 01:18:17;;;;;;;4.67;3.90;;;;;;;;;;5112915;28;20195;-79
2022/08/10 01:20:51;;;;;;;4.07;3.10;;;;;;;;;;5113438;28;20196;-78
2022/08/10 01:23:40;;;;;;;3.90;3.60;;;;;;;;;;5113032;28;20562;-79
2022/08/10 01:26:23;;;;;;;3.97;3.67;;;;;;;;;;5112754;28;20195;-78
2022/08/10 01:28:57;;;;;;;4.93;3.07;;;;;;;;;;5112637;28;20206;-77
2022/08/10 01:31:29;;;;;;;7.53;3.53;;;;;;;;;;5112961;28;20195;-78
2022/08/10 01:33:58;;;;;;;3.80;3.10;;;;;;;;;;5112860;28;20203;-78
2022/08/10 01:36:29;;;;;;;4.03;3.73;;;;;;;;;;5112473;28;20381;-78
2022/08/10 01:38:58;;;;;;;3.63;3.37;;;;;;;;;;5113612;28;20286;-78
2022/08/10 01:41:29;;;;;;;4.13;3.60;;;;;;;;;;5112644;28;20207;-78
2022/08/10 01:44:00;;;;;;;3.23;3.03;;;;;;;;;;5112322;28;20223;-78
2022/08/10 01:46:29;;;;;;;4.20;3.47;;;;;;;;;;5112691;28;20260;-78
2022/08/10 01:48:56;;;;;;;4.50;3.77;;;;;;;;;;5112277;28;20256;-78
2022/08/10 01:51:28;;;;;;;3.57;3.27;;;;;;;;;;5112348;28;20199;-78
2022/08/10 01:53:56;;;;;;;5.00;3.40;;;;;;;;;;5112302;28;20202;-78
2022/08/10 01:56:25;;;;;;;5.67;3.40;;;;;;;;;;5112111;28;20195;-78
2022/08/10 01:58:56;;;;;;;6.40;4.37;;;;;;;;;;5112662;28;20202;-78
2022/08/10 02:01:25;;;;;;;4.10;3.80;;;;;;;;;;5112185;28;20230;-78
2022/08/10 02:03:56;;;;;;;4.17;3.53;;;;;;;;;;5111908;28;20211;-78
2022/08/10 02:06:25;;;;;;;4.33;3.47;;;;;;;;;;5112088;28;20207;-78
2022/08/10 02:08:53;;;;;;;6.43;3.43;;;;;;;;;;5112040;28;20195;-78
2022/08/10 02:11:20;;;;;;;3.63;3.37;;;;;;;;;;5112400;28;20195;-78
2022/08/10 02:13:47;;;;;;;3.93;3.53;;;;;;;;;;5112313;28;20257;-78
2022/08/10 02:16:15;;;;;;;7.07;3.60;;;;;;;;;;5111486;28;20211;-78
2022/08/10 02:18:43;;;;;;;4.60;3.27;;;;;;;;;;5112892;28;20236;-78
2022/08/10 02:21:11;;;;;;;4.60;3.17;;;;;;;;;;5112955;28;20203;-78
2022/08/10 02:23:40;;;;;;;3.90;3.57;;;;;;;;;;5112601;28;20669;-78
2022/08/10 02:26:08;;;;;;;7.40;3.43;;;;;;;;;;5112767;28;20195;-78
2022/08/10 02:28:36;;;;;;;6.97;4.20;;;;;;;;;;5112797;28;20218;-78
2022/08/10 02:31:10;;;;;;;4.07;3.77;;;;;;;;;;5110032;28;20617;-78
2022/08/10 02:33:37;;;;;;;9.90;3.70;;;;;;;;;;5111883;28;20191;-78
2022/08/10 02:36:06;;;;;;;4.53;3.20;;;;;;;;;;5111859;28;20249;-78
2022/08/10 02:38:36;;;;;;;5.07;3.57;;;;;;;;;;5111276;28;20232;-79
2022/08/10 02:41:11;;;;;;;3.80;3.27;;;;;;;;;;5112010;28;20653;-78
2022/08/10 02:43:55;;;;;;;4.67;4.00;;;;;;;;;;5111113;28;20195;-78
2022/08/10 02:46:26;;;;;;;11.33;5.13;;;;;;;;;;5112196;28;20206;-78
2022/08/10 02:48:59;;;;;;;7.33;4.87;;;;;;;;;;5111038;28;20192;-78
2022/08/10 02:51:30;;;;;;;4.07;3.77;;;;;;;;;;5112426;28;20230;-78
2022/08/10 02:54:03;;;;;;;3.73;3.07;;;;;;;;;;5111255;28;20231;-78
2022/08/10 02:56:36;;;;;;;3.70;3.40;;;;;;;;;;5113398;28;20267;-78
2022/08/10 02:59:07;;;;;;;7.80;3.60;;;;;;;;;;5110541;28;20227;-78
2022/08/10 03:01:37;;;;;;;4.93;3.37;;;;;;;;;;5110989;28;20192;-77
2022/08/10 03:04:07;;;;;;;4.30;3.93;;;;;;;;;;5111199;28;20681;-81
2022/08/10 03:06:37;;;;;;;3.93;3.20;;;;;;;;;;5111110;28;20214;-81
2022/08/10 03:09:07;;;;;;;5.40;3.70;;;;;;;;;;5111483;28;20203;-81
2022/08/10 03:11:35;;;;;;;4.47;3.70;;;;;;;;;;5094563;28;20200;-81
2022/08/10 03:14:03;;;;;;;4.97;3.40;;;;;;;;;;5111682;28;20203;-81
2022/08/10 03:16:30;;;;;;;7.03;3.67;;;;;;;;;;5110896;28;20206;-82
2022/08/10 03:18:59;;;;;;;4.30;3.77;;;;;;;;;;5111141;28;20210;-82
2022/08/10 03:21:28;;;;;;;4.73;3.47;;;;;;;;;;5112699;28;20196;-81
2022/08/10 03:23:57;;;;;;;3.97;3.67;;;;;;;;;;5110472;28;20195;-82
2022/08/10 03:26:26;;;;;;;4.40;3.97;;;;;;;;;;5111358;28;20550;-81
2022/08/10 03:28:53;;;;;;;6.80;4.23;;;;;;;;;;5111079;28;20206;-81
2022/08/10 03:31:20;;;;;;;3.77;3.37;;;;;;;;;;5110410;28;20682;-82
2022/08/10 03:33:48;;;;;;;6.23;3.70;;;;;;;;;;5111096;28;20191;-81
2022/08/10 03:36:15;;;;;;;6.13;3.93;;;;;;;;;;5110731;28;20203;-81
2022/08/10 03:38:44;;;;;;;4.27;3.87;;;;;;;;;;5111708;28;20188;-80
2022/08/10 03:41:14;;;;;;;4.30;3.90;;;;;;;;;;5111063;28;20208;-80
2022/08/10 03:43:44;;;;;;;3.93;3.63;;;;;;;;;;5113895;28;20192;-81
2022/08/10 03:46:13;;;;;;;3.97;3.67;;;;;;;;;;5115178;28;20310;-80
2022/08/10 03:48:40;;;;;;;5.37;4.00;;;;;;;;;;5114517;28;20288;-79
2022/08/10 03:51:07;;;;;;;4.20;3.83;;;;;;;;;;5115007;28;20198;-80
2022/08/10 03:53:34;;;;;;;5.13;4.63;;;;;;;;;;5114912;28;20195;-80
2022/08/10 03:56:01;;;;;;;4.43;4.03;;;;;;;;;;5115346;28;20222;-81
2022/08/10 03:58:28;;;;;;;4.23;3.83;;;;;;;;;;5114106;28;20200;-81
2022/08/10 04:00:57;;;;;;;4.30;3.70;;;;;;;;;;5114455;28;20251;-80
2022/08/10 04:03:24;;;;;;;4.13;3.83;;;;;;;;;;5114487;28;20210;-80
2022/08/10 04:05:51;;;;;;;9.27;4.00;;;;;;;;;;5114861;28;20223;-80
2022/08/10 04:08:18;;;;;;;8.10;4.93;;;;;;;;;;5115078;28;20192;-81
2022/08/10 04:10:44;;;;;;;4.27;3.97;;;;;;;;;;5113727;28;20636;-81
2022/08/10 04:13:11;;;;;;;4.43;4.00;;;;;;;;;;5114407;28;20581;-79
2022/08/10 04:15:38;;;;;;;3.97;3.63;;;;;;;;;;5115014;28;20233;-80
2022/08/10 04:18:06;;;;;;;4.33;3.90;;;;;;;;;;5114547;28;20702;-79
2022/08/10 04:20:37;;;;;;;5.43;3.93;;;;;;;;;;5113663;28;20608;-79
2022/08/10 04:23:08;;;;;;;3.97;3.67;;;;;;;;;;5113602;28;20206;-80
2022/08/10 04:25:35;;;;;;;4.17;3.77;;;;;;;;;;5105117;28;20223;-81
2022/08/10 04:28:02;;;;;;;4.23;3.93;;;;;;;;;;5110057;28;20199;-81
2022/08/10 04:30:29;;;;;;;5.10;3.90;;;;;;;;;;5113797;28;20666;-82
2022/08/10 04:32:59;;;;;;;7.63;4.37;;;;;;;;;;5104245;28;20257;-87
2022/08/10 04:35:28;;;;;;;9.63;4.43;;;;;;;;;;5108404;28;20227;-86
2022/08/10 04:37:56;;;;;;;4.63;4.23;;;;;;;;;;5114352;28;20191;-88
2022/08/10 04:40:23;;;;;;;6.57;4.13;;;;;;;;;;5114647;28;20199;-85
2022/08/10 04:42:50;;;;;;;4.17;3.77;;;;;;;;;;5114304;28;20252;-86
2022/08/10 04:45:17;;;;;;;8.97;4.87;;;;;;;;;;5114577;28;20222;-88
2022/08/10 04:47:44;;;;;;;4.60;3.83;;;;;;;;;;5113993;28;20727;-86
2022/08/10 04:50:11;;;;;;;4.63;4.23;;;;;;;;;;5105248;28;20616;-85
2022/08/10 04:52:39;;;;;;;6.83;4.67;;;;;;;;;;5108329;28;20358;-84
2022/08/10 04:55:06;;;;;;;5.37;4.57;;;;;;;;;;5105502;28;20204;-83
2022/08/10 04:57:33;;;;;;;4.80;4.27;;;;;;;;;;5110626;28;20191;-84
2022/08/10 05:00:00;;;;;;;5.80;3.90;;;;;;;;;;5113640;28;20212;-84
2022/08/10 05:02:27;;;;;;;4.50;4.13;;;;;;;;;;5112631;28;20207;-82
2022/08/10 05:04:53;;;;;;;4.13;3.80;;;;;;;;;;5105350;28;20219;-84
2022/08/10 05:07:20;;;;;;;6.47;4.00;;;;;;;;;;5113563;28;20249;-84
2022/08/10 05:09:50;;;;;;;4.60;4.20;;;;;;;;;;5113050;28;20203;-85
2022/08/10 05:12:16;;;;;;;4.60;3.93;;;;;;;;;;5113095;28;20599;-85
2022/08/10 05:14:43;;;;;;;4.70;4.30;;;;;;;;;;5113075;28;20610;-85
2022/08/10 05:17:10;;;;;;;8.30;4.40;;;;;;;;;;5113191;28;20195;-85
2022/08/10 05:19:37;;;;;;;4.40;4.00;;;;;;;;;;5113563;28;20192;-85
2022/08/10 05:22:04;;;;;;;4.43;3.87;;;;;;;;;;5113416;28;20199;-84
2022/08/10 05:24:31;;;;;;;4.30;4.00;;;;;;;;;;5112674;28;20199;-84
2022/08/10 05:26:59;;;;;;;6.03;4.53;;;;;;;;;;5113128;28;20195;-84
2022/08/10 05:29:26;;;;;;;4.20;3.90;;;;;;;;;;5100343;28;20805;-85
2022/08/10 05:31:53;;;;;;;8.13;4.30;;;;;;;;;;5106497;28;20203;-83
2022/08/10 05:34:25;;;;;;;5.40;4.33;;;;;;;;;;5104812;28;20287;-84
2022/08/10 05:36:52;;;;;;;4.90;3.67;;;;;;;;;;5112908;28;20226;-85
2022/08/10 05:39:19;;;;;;;4.60;4.13;;;;;;;;;;5112657;28;20199;-85
2022/08/10 05:41:47;;;;;;;4.27;3.87;;;;;;;;;;5097729;28;20233;-84
2022/08/10 05:44:15;;;;;;;3.90;3.60;;;;;;;;;;5112684;28;20248;-85
2022/08/10 05:46:42;;;;;;;4.63;4.23;;;;;;;;;;5112205;28;20637;-85
2022/08/10 05:49:08;;;;;;;4.90;4.00;;;;;;;;;;5112316;28;20735;-84
2022/08/10 05:51:35;;;;;;;4.60;4.20;;;;;;;;;;5112421;28;20191;-84
2022/08/10 05:54:03;;;;;;;4.57;4.17;;;;;;;;;;5112351;28;20195;-85
2022/08/10 05:56:30;;;;;;;3.90;3.60;;;;;;;;;;5112258;28;20195;-83
2022/08/10 05:58:57;;;;;;;4.90;3.90;;;;;;;;;;5112262;28;20256;-85
2022/08/10 06:01:26;;;;;;;5.33;4.00;;;;;;;;;;5112273;28;20260;-84
2022/08/10 06:03:57;;;;;;;4.33;3.70;;;;;;;;;;5112137;28;20736;-83
2022/08/10 06:06:26;;;;;;;6.73;4.10;;;;;;;;;;5111299;28;20215;-84
2022/08/10 06:08:53;;;;;;;3.97;3.60;;;;;;;;;;5112152;28;20196;-83
2022/08/10 06:11:22;;;;;;;4.03;3.67;;;;;;;;;;5112214;28;20196;-84
2022/08/10 06:16:37;;;;;;;7.50;4.40;;;;;;;;;;5112041;28;20197;-84
2022/08/10 06:19:04;;;;;;;4.13;3.83;;;;;;;;;;5111675;28;20191;-86
2022/08/10 06:21:32;;;;;;;10.67;4.00;;;;;;;;;;5111989;28;20632;-84
2022/08/10 06:23:59;;;;;;;15.90;4.90;;;;;;;;;;5101194;28;20192;-84
2022/08/10 06:26:26;;;;;;;5.93;4.13;;;;;;;;;;5094023;28;20276;-84
2022/08/10 06:28:57;;;;;;;4.50;3.77;;;;;;;;;;5112334;28;20195;-84
2022/08/10 06:31:25;;;;;;;8.43;5.00;;;;;;;;;;5111691;28;20202;-83
2022/08/10 06:33:54;;;;;;;4.20;3.60;;;;;;;;;;5111537;28;20195;-86
2022/08/10 06:36:22;;;;;;;6.27;3.60;;;;;;;;;;5111970;28;20195;-84
2022/08/10 06:38:49;;;;;;;3.97;3.67;;;;;;;;;;5111772;28;20275;-84
2022/08/10 06:41:22;;;;;;;4.20;3.80;;;;;;;;;;5111789;28;20195;-87
2022/08/10 06:43:55;;;;;;;5.10;4.20;;;;;;;;;;5111468;28;20192;-85
2022/08/10 06:46:22;;;;;;;4.10;3.70;;;;;;;;;;5111194;28;20226;-82
2022/08/10 06:48:51;;;;;;;3.53;3.17;;;;;;;;;;5110378;28;20199;-85
2022/08/10 06:51:23;;;;;;;3.50;3.30;;;;;;;;;;5098670;28;20204;-84
2022/08/10 06:53:53;;;;;;;7.07;4.07;;;;;;;;;;5111652;28;20199;-85
2022/08/10 06:56:22;;;;;;;9.83;4.37;;;;;;;;;;5112016;28;20642;-84
2022/08/10 06:58:52;;;;;;;4.50;3.70;;;;;;;;;;5111346;28;20202;-85
2022/08/10 07:01:21;;;;;;;4.37;3.97;;;;;;;;;;5111377;28;20226;-84
2022/08/10 07:03:55;;;;;;;7.23;3.67;;;;;;;;;;5098062;28;20287;-84
2022/08/10 07:06:24;;;;;;;3.83;3.53;;;;;;;;;;5103831;28;20218;-84
2022/08/10 07:08:51;;;;;;;7.37;3.77;;;;;;;;;;5102423;28;20203;-85
2022/08/10 07:11:19;;;;;;;4.73;3.53;;;;;;;;;;5111329;28;20207;-85
2022/08/10 07:13:46;;;;;;;6.97;3.67;;;;;;;;;;5111175;28;20199;-85
2022/08/10 07:16:14;;;;;;;3.70;3.40;;;;;;;;;;5098874;28;20244;-84
2022/08/10 07:18:42;;;;;;;4.37;3.43;;;;;;;;;;5115858;28;20632;-84
2022/08/10 07:21:10;;;;;;;5.78;3.63;;;;;;;;;;5115520;28;20195;-85
2022/08/10 07:23:38;;;;;;;3.67;3.33;;;;;;;;;;5115641;28;20582;-84
2022/08/10 07:26:08;;;;;;;4.68;3.17;;;;;;;;;;5114657;28;20223;-84
2022/08/10 07:28:35;;;;;;;4.30;3.83;;;;;;;;;;5115600;28;20195;-85
2022/08/10 07:31:03;;;;;;;9.63;3.65;;;;;;;;;;5115097;28;20196;-84
2022/08/10 07:33:30;;;;;;;4.10;3.73;;;;;;;;;;5100021;28;20199;-85
2022/08/10 07:35:57;;;;;;;9.77;3.90;;;;;;;;;;5103361;28;20196;-85
2022/08/10 07:38:27;;;;;;;8.73;4.40;;;;;;;;;;5113112;28;20195;-85
2022/08/10 07:40:56;;;;;;;6.33;3.20;;;;;;;;;;5115167;28;20249;-84
2022/08/10 07:43:24;;;;;;;5.45;3.50;;;;;;;;;;5107420;28;20199;-85
2022/08/10 07:45:51;;;;;;;9.97;3.83;;;;;;;;;;5106519;28;20571;-87
2022/08/10 07:48:23;;;;;;;3.80;3.50;;;;;;;;;;5078452;28;20200;-84
2022/08/10 07:50:53;;;;;;;6.87;4.83;;;;;;;;;;5115049;28;20202;-85
2022/08/10 07:53:23;;;;;;;5.63;3.92;;;;;;;;;;5114871;28;20192;-84
2022/08/10 07:55:52;;;;;;;8.75;4.05;;;;;;;;;;5110954;28;20207;-85
2022/08/10 07:58:22;;;;;;;7.75;4.18;;;;;;;;;;5105003;28;20222;-84
2022/08/10 08:00:51;;;;;;;4.03;3.67;;;;;;;;;;5114473;28;20227;-85
2022/08/10 08:03:21;;;;;;;9.77;4.50;;;;;;;;;;5114555;28;20203;-85
2022/08/10 08:05:48;;;;;;;7.32;3.45;;;;;;;;;;5114630;28;20223;-85
2022/08/10 08:08:15;;;;;;;4.28;3.88;;;;;;;;;;5114866;28;20545;-84
2022/08/10 08:10:42;;;;;;;7.18;3.92;;;;;;;;;;5114478;28;20290;-86
2022/08/10 08:13:10;;;;;;;6.90;3.55;;;;;;;;;;5114753;28;20260;-85
2022/08/10 08:15:38;;;;;;;6.70;3.85;;;;;;;;;;5114372;28;20192;-85
2022/08/10 08:18:05;;;;;;;4.15;3.78;;;;;;;;;;5114459;28;20199;-83
2022/08/10 08:20:32;;;;;;;4.47;3.63;;;;;;;;;;5114755;28;20196;-83
2022/08/10 08:23:00;;;;;;;5.55;3.83;;;;;;;;;;5114086;28;20229;-85
2022/08/10 08:25:27;;;;;;;5.38;3.80;;;;;;;;;;5114830;28;20198;-85
2022/08/10 08:27:55;;;;;;;4.05;3.70;;;;;;;;;;5113314;28;20192;-84
2022/08/10 08:30:23;;;;;;;4.55;3.40;;;;;;;;;;5114482;28;20218;-85
2022/08/10 08:32:52;;;;;;;4.53;4.07;;;;;;;;;;5108406;28;20201;-84
2022/08/10 08:35:20;;;;;;;3.90;3.42;;;;;;;;;;5113056;28;20252;-84
2022/08/10 08:37:48;;;;;;;3.88;3.58;;;;;;;;;;5113930;28;20203;-85
2022/08/10 08:40:17;;;;;;;5.45;3.83;;;;;;;;;;5099396;28;20206;-84
2022/08/10 08:42:53;;;;;;;3.63;3.33;;;;;;;;;;5113928;28;20207;-85
2022/08/10 08:45:24;;;;;;;5.63;3.90;;;;;;;;;;5113892;28;20575;-84
2022/08/10 08:48:19;;;;;;;3.78;3.47;;;;;;;;;;5113971;28;20223;-85
2022/08/10 08:50:57;;;;;;;3.67;3.38;;;;;;;;;;5093567;28;20204;-86
2022/08/10 08:53:37;;;;;;;4.13;3.83;;;;;;;;;;5108994;28;20227;-84
2022/08/10 08:56:07;;;;;;;4.78;4.30;;;;;;;;;;5113820;28;20271;-84
2022/08/10 08:58:52;;;;;;;4.67;4.27;;;;;;;;;;5113907;28;20659;-84
2022/08/10 09:01:26;;;;;;;5.30;4.20;;;;;;;;;;5113406;28;20223;-84
2022/08/10 09:04:11;;;;;;;4.38;3.97;;;;;;;;;;5113279;28;20203;-84
2022/08/10 09:06:52;;;;;;;11.05;3.83;;;;;;;;;;5113378;28;20223;-84
2022/08/10 09:09:37;;;;;;;6.38;4.10;;;;;;;;;;5111259;28;20340;-84
2022/08/10 09:12:18;;;;;;;5.30;3.70;;;;;;;;;;5093323;28;20196;-84
2022/08/10 09:14:52;;;;;;;4.72;4.32;;;;;;;;;;5112220;28;20586;-85
2022/08/10 09:17:29;;;;;;;4.85;4.43;;;;;;;;;;5113274;28;20195;-85
2022/08/10 09:20:04;;;;;;;4.82;3.92;;;;;;;;;;5113127;28;20205;-85
2022/08/10 09:22:38;;;;;;;4.82;4.07;;;;;;;;;;5113588;28;20255;-84
2022/08/10 09:25:15;;;;;;;4.13;3.83;;;;;;;;;;5113502;28;20199;-84
2022/08/10 09:27:44;;;;;;;5.30;4.32;;;;;;;;;;5113260;28;20589;-84
2022/08/10 09:30:15;;;;;;;5.45;5.05;;;;;;;;;;5112254;28;20199;-84
2022/08/10 09:32:47;;;;;;;4.72;4.32;;;;;;;;;;5112396;28;20291;-84
2022/08/10 09:35:19;;;;;;;6.80;5.00;;;;;;;;;;5109013;28;20231;-84
2022/08/10 09:37:49;;;;;;;6.40;4.87;;;;;;;;;;5112856;28;20681;-85
2022/08/10 09:40:26;;;;;;;4.10;3.80;;;;;;;;;;5111596;28;20646;-83
2022/08/10 09:43:01;;;;;;;4.50;4.20;;;;;;;;;;5112731;28;20278;-84
2022/08/10 09:45:33;;;;;;;4.57;4.27;;;;;;;;;;5112503;28;20191;-84
2022/08/10 09:48:09;;;;;;;4.70;4.20;;;;;;;;;;5099003;28;20637;-85
2022/08/10 09:50:46;;;;;;;4.47;4.13;;;;;;;;;;5092608;28;20199;-85
2022/08/10 09:53:19;;;;;;;6.17;4.10;;;;;;;;;;5106248;28;20195;-86
2022/08/10 09:55:48;;;;;;;5.27;4.87;;;;;;;;;;5110540;28;20259;-86
2022/08/10 09:58:28;;;;;;;6.23;4.43;;;;;;;;;;5101875;28;20196;-84
2022/08/10 10:01:16;;;;;;;7.67;4.00;;;;;;;;;;5112449;28;20231;-85
2022/08/10 10:03:54;;;;;;;4.40;3.87;;;;;;;;;;5112303;28;20661;-85
2022/08/10 10:06:29;;;;;;;4.13;3.70;;;;;;;;;;5112064;28;20226;-84
2022/08/10 10:09:03;;;;;;;4.67;4.27;;;;;;;;;;5112176;28;20304;-84
2022/08/10 10:11:36;;;;;;;4.13;3.83;;;;;;;;;;5111983;28;20557;-85
2022/08/10 10:14:10;;;;;;;4.63;4.10;;;;;;;;;;5098185;28;20321;-85
2022/08/10 10:16:48;;;;;;;4.90;4.40;;;;;;;;;;5095917;28;20267;-84
2022/08/10 10:19:31;;;;;;;5.03;4.40;;;;;;;;;;5112128;28;20195;-87
2022/08/10 10:22:13;;;;;;;4.20;3.90;;;;;;;;;;5112297;28;20238;-83
2022/08/10 10:24:43;;;;;;;5.17;4.67;;;;;;;;;;5111884;28;20234;-85
2022/08/10 10:27:21;;;;;;;4.13;3.83;;;;;;;;;;5101672;28;20235;-85
2022/08/10 10:29:57;;;;;;;5.50;4.23;;;;;;;;;;5094803;28;20241;-83
2022/08/10 10:32:28;;;;;;;5.53;4.20;;;;;;;;;;5111715;28;20203;-85
2022/08/10 10:35:00;;;;;;;4.90;4.20;;;;;;;;;;5108969;28;20229;-83
2022/08/10 10:37:30;;;;;;;4.17;3.77;;;;;;;;;;5102038;28;20222;-87
2022/08/10 10:40:01;;;;;;;6.40;4.10;;;;;;;;;;5112577;28;20248;-83
2022/08/10 10:42:35;;;;;;;4.73;3.60;;;;;;;;;;5111802;28;20207;-84
2022/08/10 10:45:11;;;;;;;4.77;4.17;;;;;;;;;;5111805;28;20669;-84
2022/08/10 10:47:49;;;;;;;4.60;4.30;;;;;;;;;;5101846;28;20230;-84
2022/08/10 10:50:19;;;;;;;4.28;3.90;;;;;;;;;;5111310;28;20200;-86
2022/08/10 10:52:58;;;;;;;4.40;4.00;;;;;;;;;;5111595;28;20199;-86
2022/08/10 10:55:34;;;;;;;3.83;3.53;;;;;;;;;;5111971;28;20199;-84
2022/08/10 10:58:05;;;;;;;4.38;4.07;;;;;;;;;;5091342;28;20253;-83
2022/08/10 11:00:39;;;;;;;4.18;3.45;;;;;;;;;;5105982;28;20227;-86
2022/08/10 11:03:27;;;;;;;7.00;4.10;;;;;;;;;;5111323;28;20681;-83
2022/08/10 11:06:03;;;;;;;5.18;4.13;;;;;;;;;;5111391;28;20205;-84
2022/08/10 11:08:36;;;;;;;4.05;3.75;;;;;;;;;;5111803;28;20222;-84
2022/08/10 11:11:07;;;;;;;6.22;4.55;;;;;;;;;;5112136;28;20210;-86
2022/08/10 11:13:37;;;;;;;5.03;4.38;;;;;;;;;;5112183;28;20200;-83
2022/08/10 11:16:06;;;;;;;4.10;3.80;;;;;;;;;;5111040;28;20195;-83
2022/08/10 11:18:50;;;;;;;4.85;4.40;;;;;;;;;;5111459;28;20198;-86
2022/08/10 11:21:25;;;;;;;4.10;3.70;;;;;;;;;;5111278;28;20211;-83
2022/08/10 11:24:00;;;;;;;5.22;4.35;;;;;;;;;;5112097;28;20202;-84
2022/08/10 11:26:29;;;;;;;4.65;4.25;;;;;;;;;;5111389;28;20198;-83
2022/08/10 11:29:03;;;;;;;4.68;4.28;;;;;;;;;;5111113;28;20199;-86
2022/08/10 11:31:36;;;;;;;4.80;4.40;;;;;;;;;;5111254;28;20199;-83
2022/08/10 11:34:06;;;;;;;4.82;4.25;;;;;;;;;;5111154;28;20206;-85
2022/08/10 11:36:40;;;;;;;4.53;4.03;;;;;;;;;;5111851;28;20597;-84
2022/08/10 11:39:21;;;;;;;5.07;4.55;;;;;;;;;;5111118;28;20199;-85
2022/08/10 11:41:53;;;;;;;4.88;4.40;;;;;;;;;;5107476;28;20192;-85
2022/08/10 11:44:26;;;;;;;4.88;4.47;;;;;;;;;;5101570;28;20227;-84
2022/08/10 11:46:57;;;;;;;6.35;4.00;;;;;;;;;;5110999;28;20211;-86
2022/08/10 11:49:30;;;;;;;4.45;4.15;;;;;;;;;;5110702;28;20290;-84
2022/08/10 11:52:01;;;;;;;5.20;4.70;;;;;;;;;;5111186;28;20634;-86
2022/08/10 11:54:37;;;;;;;5.82;3.95;;;;;;;;;;5110989;28;20229;-86
2022/08/10 11:57:04;;;;;;;4.93;4.43;;;;;;;;;;5097267;28;20199;-85
2022/08/10 12:02:20;;;;;;;5.13;4.72;;;;;;;;;;5110946;28;20569;-86
2022/08/10 12:04:51;;;;;;;5.05;4.38;;;;;;;;;;5114588;28;20214;-84
2022/08/10 12:07:20;;;;;;;4.97;4.43;;;;;;;;;;5114947;28;20215;-89
2022/08/10 12:09:51;;;;;;;4.63;4.32;;;;;;;;;;5115062;28;20196;-86
2022/08/10 12:12:18;;;;;;;5.25;4.25;;;;;;;;;;5101466;28;20196;-85
2022/08/10 12:14:50;;;;;;;4.43;4.03;;;;;;;;;;5110605;28;20195;-85
2022/08/10 12:17:22;;;;;;;5.10;4.45;;;;;;;;;;5114527;28;20198;-86
2022/08/10 12:19:55;;;;;;;4.78;3.90;;;;;;;;;;5114123;28;20282;-85
2022/08/10 12:22:25;;;;;;;5.25;4.70;;;;;;;;;;5114227;28;20207;-87
2022/08/10 12:24:56;;;;;;;4.75;3.88;;;;;;;;;;5114890;28;20192;-87
2022/08/10 12:27:29;;;;;;;4.70;4.30;;;;;;;;;;5114264;28;20219;-84
2022/08/10 12:30:00;;;;;;;7.10;4.90;;;;;;;;;;5114488;28;20583;-84
2022/08/10 12:32:29;;;;;;;5.22;4.82;;;;;;;;;;5114706;28;20272;-84
2022/08/10 12:35:00;;;;;;;6.75;4.78;;;;;;;;;;5114788;28;20604;-84
2022/08/10 12:37:31;;;;;;;4.50;4.20;;;;;;;;;;5114411;28;20199;-84
2022/08/10 12:40:06;;;;;;;6.70;4.85;;;;;;;;;;5102479;28;20204;-82
2022/08/10 12:42:39;;;;;;;5.03;4.53;;;;;;;;;;5114442;28;20198;-86
2022/08/10 12:45:12;;;;;;;4.75;4.20;;;;;;;;;;5114213;28;20199;-84
2022/08/10 12:47:53;;;;;;;5.18;4.28;;;;;;;;;;5114815;28;20223;-88
2022/08/10 12:50:23;;;;;;;4.45;4.15;;;;;;;;;;5110021;28;20196;-88
2022/08/10 12:52:58;;;;;;;5.68;4.40;;;;;;;;;;5100276;28;20196;-87
2022/08/10 12:55:29;;;;;;;5.35;4.20;;;;;;;;;;5113097;28;20210;-87
2022/08/10 12:57:57;;;;;;;6.78;4.40;;;;;;;;;;5093975;28;20265;-87
2022/08/10 13:00:30;;;;;;;4.45;4.03;;;;;;;;;;5103308;28;20223;-86
2022/08/10 13:02:57;;;;;;;4.70;4.10;;;;;;;;;;5113642;28;20199;-85
2022/08/10 13:05:26;;;;;;;8.98;4.32;;;;;;;;;;5113626;28;20218;-83
2022/08/10 13:10:45;;;;;;;5.05;4.63;;;;;;;;;;5099617;28;20627;-85
2022/08/10 13:13:14;;;;;;;4.45;3.75;;;;;;;;;;5107133;28;20278;-84
2022/08/10 13:15:47;;;;;;;5.00;4.22;;;;;;;;;;5113769;28;20617;-85
2022/08/10 13:18:16;;;;;;;4.70;4.30;;;;;;;;;;5113251;28;20191;-85
2022/08/10 13:20:44;;;;;;;4.95;4.05;;;;;;;;;;5113588;28;20200;-84
2022/08/10 13:23:13;;;;;;;5.25;4.70;;;;;;;;;;5112722;28;20195;-83
2022/08/10 13:25:45;;;;;;;3.95;3.65;;;;;;;;;;5108537;28;20200;-86
2022/08/10 13:28:16;;;;;;;4.28;3.97;;;;;;;;;;5110713;28;20265;-83
2022/08/10 13:30:45;;;;;;;6.13;4.38;;;;;;;;;;5113259;28;20207;-86
2022/08/10 13:33:17;;;;;;;5.10;4.65;;;;;;;;;;5113207;28;20199;-87
2022/08/10 13:35:44;;;;;;;4.35;3.80;;;;;;;;;;5113036;28;20204;-85
2022/08/10 13:38:15;;;;;;;3.47;3.20;;;;;;;;;;5113409;28;20543;-85
2022/08/10 13:40:47;;;;;;;3.92;3.63;;;;;;;;;;5112757;28;20280;-85
2022/08/10 13:43:15;;;;;;;5.75;3.78;;;;;;;;;;5112814;28;20210;-84
2022/08/10 13:45:43;;;;;;;3.60;3.30;;;;;;;;;;5112927;28;20188;-84
2022/08/10 13:48:13;;;;;;;5.32;3.90;;;;;;;;;;5112464;28;20734;-86
2022/08/10 13:50:40;;;;;;;5.95;4.03;;;;;;;;;;5113143;28;20219;-85
2022/08/10 13:53:10;;;;;;;4.95;3.88;;;;;;;;;;5112556;28;20196;-86
2022/08/10 13:55:43;;;;;;;4.57;4.18;;;;;;;;;;5110786;28;20191;-87
2022/08/10 13:58:11;;;;;;;3.97;3.58;;;;;;;;;;5101318;28;20223;-84
2022/08/10 14:00:39;;;;;;;5.93;4.47;;;;;;;;;;5112691;28;20227;-85
2022/08/10 14:03:10;;;;;;;3.70;3.40;;;;;;;;;;5112779;28;20198;-86
2022/08/10 14:05:41;;;;;;;4.03;3.63;;;;;;;;;;5106130;28;20227;-85
2022/08/10 14:08:11;;;;;;;6.22;3.90;;;;;;;;;;5112382;28;20650;-85
2022/08/10 14:10:41;;;;;;;4.13;3.78;;;;;;;;;;5112589;28;20222;-84
2022/08/10 14:13:11;;;;;;;4.10;3.70;;;;;;;;;;5112179;28;20238;-85
2022/08/10 14:15:39;;;;;;;4.15;3.80;;;;;;;;;;5112321;28;20195;-85
2022/08/10 14:18:07;;;;;;;4.03;3.72;;;;;;;;;;5112357;28;20593;-88
2022/08/10 14:20:37;;;;;;;4.50;3.58;;;;;;;;;;5112387;28;20203;-84
2022/08/10 14:23:05;;;;;;;4.25;3.85;;;;;;;;;;5112108;28;20195;-84
2022/08/10 14:25:33;;;;;;;4.47;3.63;;;;;;;;;;5112018;28;20302;-85
2022/08/10 14:28:00;;;;;;;3.80;3.40;;;;;;;;;;5111886;28;20684;-84
2022/08/10 14:30:30;;;;;;;4.07;3.70;;;;;;;;;;5112047;28;20202;-83
2022/08/10 14:33:02;;;;;;;9.77;3.97;;;;;;;;;;5111940;28;20223;-85
2022/08/10 14:35:33;;;;;;;4.03;3.58;;;;;;;;;;5111627;28;20734;-85
2022/08/10 14:38:07;;;;;;;3.65;3.35;;;;;;;;;;5111876;28;20615;-83
2022/08/10 14:40:39;;;;;;;3.85;3.55;;;;;;;;;;5111730;28;20192;-83
2022/08/10 14:43:10;;;;;;;4.10;3.80;;;;;;;;;;5112163;28;20195;-83
2022/08/10 14:45:44;;;;;;;4.68;3.65;;;;;;;;;;5112192;28;20200;-85
2022/08/10 14:48:13;;;;;;;3.53;3.33;;;;;;;;;;5111213;28;20598;-85
2022/08/10 14:50:40;;;;;;;4.72;4.05;;;;;;;;;;5111709;28;20199;-85
2022/08/10 14:53:10;;;;;;;4.22;3.83;;;;;;;;;;5111026;28;20210;-83
2022/08/10 14:55:38;;;;;;;3.83;3.53;;;;;;;;;;5111669;28;20199;-87
2022/08/10 14:58:05;;;;;;;3.63;3.33;;;;;;;;;;5111173;28;20659;-85
2022/08/10 15:00:39;;;;;;;3.58;3.28;;;;;;;;;;5111799;28;20227;-85
2022/08/10 15:03:08;;;;;;;3.15;2.95;;;;;;;;;;5110468;28;20285;-86
2022/08/10 15:05:36;;;;;;;6.00;3.72;;;;;;;;;;5111074;28;20248;-86
2022/08/10 15:08:03;;;;;;;4.82;3.00;;;;;;;;;;5110977;28;20219;-83
2022/08/10 15:10:30;;;;;;;3.00;2.80;;;;;;;;;;5111363;28;20202;-86